Time;durP1;ratioP1;P1;durP2;ratioP2;P2;SDS_P1;SDS_P2;PMS_P1;PMS_P2;Temp;Humidity;BMP_temperature;BMP_pressure;BME280_temperature;BME280_humidity;BME280_pressure;Samples;Min_cycle;Max_cycle;Signal;HPM_P1;HPM_P2
2022/03/26 00:00:56;;;;;;;18.50;9.80;;;;;;;;;;5032591;28;20043;-71
2022/03/26 00:03:23;;;;;;;16.20;8.85;;;;;;;;;;5031804;28;20022;-71
2022/03/26 00:05:49;;;;;;;20.48;9.55;;;;;;;;;;5031467;28;20038;-71
2022/03/26 00:08:15;;;;;;;16.88;8.18;;;;;;;;;;5031378;28;20037;-71
2022/03/26 00:10:42;;;;;;;14.55;7.80;;;;;;;;;;5015910;28;20024;-71
2022/03/26 00:13:09;;;;;;;17.15;7.57;;;;;;;;;;5032032;28;20029;-71
2022/03/26 00:15:35;;;;;;;14.75;6.93;;;;;;;;;;5009426;28;20044;-71
2022/03/26 00:18:02;;;;;;;12.05;7.07;;;;;;;;;;5031583;28;20025;-71
2022/03/26 00:20:28;;;;;;;15.98;7.85;;;;;;;;;;5031673;28;20029;-71
2022/03/26 00:22:55;;;;;;;13.13;7.28;;;;;;;;;;5031142;28;20393;-71
2022/03/26 00:25:21;;;;;;;11.88;7.50;;;;;;;;;;5031764;28;20037;-71
2022/03/26 00:27:48;;;;;;;12.32;7.18;;;;;;;;;;5031763;28;20401;-71
2022/03/26 00:30:14;;;;;;;10.80;6.63;;;;;;;;;;5031201;28;20030;-71
2022/03/26 00:32:41;;;;;;;10.50;6.95;;;;;;;;;;5031242;28;20033;-71
2022/03/26 00:35:09;;;;;;;13.15;7.13;;;;;;;;;;5031208;28;20417;-71
2022/03/26 00:37:36;;;;;;;11.25;6.50;;;;;;;;;;5031039;28;20017;-71
2022/03/26 00:40:03;;;;;;;11.60;6.75;;;;;;;;;;5013963;28;20045;-71
2022/03/26 00:42:29;;;;;;;12.32;6.22;;;;;;;;;;5031061;28;20382;-71
2022/03/26 00:44:55;;;;;;;12.85;6.72;;;;;;;;;;5031418;28;20034;-70
2022/03/26 00:47:21;;;;;;;9.75;6.90;;;;;;;;;;5031153;28;20025;-71
2022/03/26 00:49:48;;;;;;;10.48;6.60;;;;;;;;;;5031073;28;20425;-71
2022/03/26 00:52:14;;;;;;;13.60;7.20;;;;;;;;;;5034297;28;20021;-71
2022/03/26 00:54:40;;;;;;;12.52;7.43;;;;;;;;;;5035498;28;20044;-71
2022/03/26 00:57:07;;;;;;;10.68;6.75;;;;;;;;;;5034899;28;20521;-71
2022/03/26 00:59:33;;;;;;;13.20;7.10;;;;;;;;;;5035113;28;20040;-71
2022/03/26 01:01:59;;;;;;;10.73;6.22;;;;;;;;;;5035314;28;20023;-71
2022/03/26 01:04:26;;;;;;;10.00;6.47;;;;;;;;;;5035132;28;20025;-71
2022/03/26 01:06:52;;;;;;;10.32;6.53;;;;;;;;;;5035041;28;20028;-71
2022/03/26 01:09:18;;;;;;;12.27;7.00;;;;;;;;;;5034780;28;20036;-70
2022/03/26 01:11:45;;;;;;;12.20;7.20;;;;;;;;;;5034788;28;20017;-71
2022/03/26 01:14:11;;;;;;;11.70;6.90;;;;;;;;;;5035107;28;20029;-71
2022/03/26 01:16:37;;;;;;;11.88;7.20;;;;;;;;;;5034817;28;20029;-71
2022/03/26 01:19:04;;;;;;;9.82;6.53;;;;;;;;;;5035143;28;20405;-71
2022/03/26 01:21:30;;;;;;;11.77;7.15;;;;;;;;;;5034633;28;20022;-71
2022/03/26 01:23:57;;;;;;;11.55;6.45;;;;;;;;;;5034580;28;20551;-71
2022/03/26 01:26:23;;;;;;;11.52;7.28;;;;;;;;;;5034408;28;20024;-71
2022/03/26 01:28:49;;;;;;;12.95;6.68;;;;;;;;;;5034499;28;20092;-71
2022/03/26 01:31:19;;;;;;;10.52;6.65;;;;;;;;;;5034822;28;20021;-70
2022/03/26 01:33:49;;;;;;;9.57;6.32;;;;;;;;;;5033715;28;20044;-71
2022/03/26 01:36:15;;;;;;;10.85;6.25;;;;;;;;;;5034077;28;20408;-71
2022/03/26 01:38:42;;;;;;;12.18;6.20;;;;;;;;;;5034403;28;20033;-71
2022/03/26 01:41:08;;;;;;;13.60;7.13;;;;;;;;;;5034529;28;20017;-71
2022/03/26 01:43:35;;;;;;;13.55;8.35;;;;;;;;;;5034320;28;20017;-70
2022/03/26 01:46:02;;;;;;;14.48;6.88;;;;;;;;;;5034752;28;20478;-71
2022/03/26 01:48:28;;;;;;;11.32;6.88;;;;;;;;;;5034043;28;20025;-71
2022/03/26 01:50:54;;;;;;;11.48;6.68;;;;;;;;;;5033805;28;20025;-71
2022/03/26 01:53:21;;;;;;;11.27;6.72;;;;;;;;;;5034059;28;20031;-71
2022/03/26 01:55:49;;;;;;;12.77;6.97;;;;;;;;;;5033973;28;20021;-71
2022/03/26 01:58:15;;;;;;;13.57;7.13;;;;;;;;;;5034357;28;20028;-71
2022/03/26 02:00:41;;;;;;;13.80;6.88;;;;;;;;;;5034471;28;20402;-71
2022/03/26 02:03:08;;;;;;;12.82;6.82;;;;;;;;;;5033452;28;20021;-71
2022/03/26 02:05:35;;;;;;;9.73;6.55;;;;;;;;;;5033510;28;20029;-71
2022/03/26 02:08:03;;;;;;;11.32;6.85;;;;;;;;;;5033685;28;20041;-71
2022/03/26 02:10:29;;;;;;;9.63;6.15;;;;;;;;;;5033996;28;20521;-71
2022/03/26 02:12:56;;;;;;;10.07;6.45;;;;;;;;;;5034683;28;20036;-71
2022/03/26 02:15:22;;;;;;;13.43;7.03;;;;;;;;;;5033538;28;20405;-71
2022/03/26 02:17:49;;;;;;;10.48;6.35;;;;;;;;;;5033577;28;20028;-71
2022/03/26 02:20:15;;;;;;;11.32;5.97;;;;;;;;;;5033385;28;20030;-71
2022/03/26 02:22:41;;;;;;;9.70;5.93;;;;;;;;;;5000727;28;20017;-71
2022/03/26 02:25:09;;;;;;;9.45;5.95;;;;;;;;;;5033856;28;20401;-71
2022/03/26 02:27:36;;;;;;;10.85;5.70;;;;;;;;;;5033486;28;20023;-71
2022/03/26 02:30:03;;;;;;;8.70;5.70;;;;;;;;;;5033328;28;20025;-71
2022/03/26 02:32:29;;;;;;;9.77;5.70;;;;;;;;;;5033587;28;20025;-71
2022/03/26 02:34:56;;;;;;;10.35;6.50;;;;;;;;;;5033289;28;20017;-71
2022/03/26 02:37:23;;;;;;;9.07;5.70;;;;;;;;;;5033323;28;20037;-71
2022/03/26 02:39:49;;;;;;;8.30;5.40;;;;;;;;;;5015875;28;20052;-71
2022/03/26 02:42:16;;;;;;;11.02;6.00;;;;;;;;;;5015599;28;20400;-71
2022/03/26 02:44:42;;;;;;;10.40;5.85;;;;;;;;;;5015477;28;20043;-71
2022/03/26 02:47:10;;;;;;;9.43;5.53;;;;;;;;;;5033170;28;20028;-71
2022/03/26 02:49:37;;;;;;;14.20;6.00;;;;;;;;;;5015012;28;20037;-71
2022/03/26 02:52:03;;;;;;;9.05;5.30;;;;;;;;;;5033796;28;20025;-71
2022/03/26 02:54:30;;;;;;;8.35;5.30;;;;;;;;;;5032946;28;20021;-71
2022/03/26 02:56:57;;;;;;;7.65;5.05;;;;;;;;;;5032819;28;20026;-71
2022/03/26 02:59:23;;;;;;;8.65;5.53;;;;;;;;;;5032780;28;20045;-71
2022/03/26 03:01:52;;;;;;;7.60;5.07;;;;;;;;;;5032556;28;20021;-71
2022/03/26 03:04:19;;;;;;;8.07;4.78;;;;;;;;;;5033091;28;20030;-71
2022/03/26 03:06:45;;;;;;;10.82;5.65;;;;;;;;;;5032403;28;20028;-71
2022/03/26 03:09:11;;;;;;;7.65;5.32;;;;;;;;;;5032424;28;20047;-71
2022/03/26 03:11:38;;;;;;;11.02;5.95;;;;;;;;;;5032581;28;20030;-71
2022/03/26 03:14:04;;;;;;;10.52;5.55;;;;;;;;;;5032023;28;20028;-71
2022/03/26 03:16:31;;;;;;;11.18;5.97;;;;;;;;;;5032445;28;20039;-71
2022/03/26 03:18:58;;;;;;;10.80;6.20;;;;;;;;;;5032792;28;20493;-71
2022/03/26 03:21:24;;;;;;;8.45;5.50;;;;;;;;;;5014737;28;20401;-70
2022/03/26 03:23:51;;;;;;;9.57;5.78;;;;;;;;;;5014741;28;20490;-71
2022/03/26 03:26:17;;;;;;;9.38;5.72;;;;;;;;;;5032553;28;20018;-71
2022/03/26 03:28:43;;;;;;;10.65;5.28;;;;;;;;;;5032420;28;20025;-71
2022/03/26 03:31:10;;;;;;;9.10;5.45;;;;;;;;;;5032546;28;20385;-71
2022/03/26 03:33:37;;;;;;;12.73;6.03;;;;;;;;;;5032184;28;20022;-71
2022/03/26 03:36:03;;;;;;;10.55;5.78;;;;;;;;;;5032061;28;20109;-71
2022/03/26 03:38:30;;;;;;;10.85;6.32;;;;;;;;;;5031937;28;20013;-71
2022/03/26 03:40:56;;;;;;;10.43;6.68;;;;;;;;;;5032380;28;20036;-71
2022/03/26 03:43:22;;;;;;;13.82;6.03;;;;;;;;;;5032221;28;20021;-71
2022/03/26 03:45:49;;;;;;;9.77;6.22;;;;;;;;;;5032297;28;20060;-71
2022/03/26 03:48:15;;;;;;;11.57;6.32;;;;;;;;;;5032047;28;20478;-71
2022/03/26 03:50:42;;;;;;;13.00;5.93;;;;;;;;;;5031817;28;20570;-71
2022/03/26 03:53:08;;;;;;;10.23;6.35;;;;;;;;;;5031793;28;20031;-71
2022/03/26 03:55:35;;;;;;;9.40;6.28;;;;;;;;;;5032163;28;20026;-71
2022/03/26 03:58:01;;;;;;;10.93;6.68;;;;;;;;;;5032317;28;20029;-71
2022/03/26 04:00:28;;;;;;;10.73;6.15;;;;;;;;;;5031128;28;20412;-71
2022/03/26 04:02:54;;;;;;;8.65;5.78;;;;;;;;;;5031731;28;20028;-71
2022/03/26 04:05:21;;;;;;;12.13;6.18;;;;;;;;;;5031532;28;20029;-71
2022/03/26 04:07:47;;;;;;;8.77;5.82;;;;;;;;;;5031438;28;20053;-71
2022/03/26 04:10:14;;;;;;;9.60;6.30;;;;;;;;;;5031977;28;20024;-71
2022/03/26 04:12:41;;;;;;;11.13;6.07;;;;;;;;;;5031801;28;20033;-71
2022/03/26 04:15:09;;;;;;;13.30;6.20;;;;;;;;;;5031066;28;20014;-71
2022/03/26 04:17:35;;;;;;;9.57;5.50;;;;;;;;;;5031510;28;20051;-71
2022/03/26 04:20:02;;;;;;;12.02;6.05;;;;;;;;;;5031455;28;20029;-71
2022/03/26 04:22:28;;;;;;;9.38;5.78;;;;;;;;;;5031462;28;20021;-71
2022/03/26 04:24:55;;;;;;;11.25;5.93;;;;;;;;;;5031646;28;20036;-71
2022/03/26 04:27:22;;;;;;;9.20;5.50;;;;;;;;;;5031124;28;20025;-71
2022/03/26 04:29:49;;;;;;;11.25;6.00;;;;;;;;;;5030912;28;20406;-71
2022/03/26 04:32:15;;;;;;;12.52;6.35;;;;;;;;;;5031356;28;20409;-71
2022/03/26 04:34:42;;;;;;;8.45;5.45;;;;;;;;;;5015625;28;20489;-71
2022/03/26 04:37:08;;;;;;;8.93;5.90;;;;;;;;;;5031734;28;20029;-71
2022/03/26 04:39:34;;;;;;;9.60;5.82;;;;;;;;;;5031143;28;20044;-71
2022/03/26 04:42:01;;;;;;;9.07;5.57;;;;;;;;;;5031187;28;20022;-71
2022/03/26 04:44:27;;;;;;;15.73;6.32;;;;;;;;;;5030736;28;20035;-71
2022/03/26 04:46:53;;;;;;;7.30;5.35;;;;;;;;;;5031246;28;20022;-71
2022/03/26 04:49:20;;;;;;;11.02;5.75;;;;;;;;;;5031330;28;20028;-71
2022/03/26 04:51:46;;;;;;;12.75;6.68;;;;;;;;;;5031605;28;20026;-71
2022/03/26 04:54:12;;;;;;;12.93;6.47;;;;;;;;;;5031082;28;20026;-71
2022/03/26 04:56:39;;;;;;;13.15;6.30;;;;;;;;;;5031202;28;20035;-71
2022/03/26 04:59:06;;;;;;;10.70;6.13;;;;;;;;;;5030784;28;20025;-71
2022/03/26 05:01:32;;;;;;;11.20;6.00;;;;;;;;;;5031145;28;20389;-71
2022/03/26 05:03:59;;;;;;;9.55;5.90;;;;;;;;;;5031731;28;20022;-70
2022/03/26 05:06:25;;;;;;;10.15;5.70;;;;;;;;;;5030909;28;20044;-71
2022/03/26 05:08:51;;;;;;;9.02;6.20;;;;;;;;;;5030802;28;20046;-71
2022/03/26 05:11:19;;;;;;;9.45;6.38;;;;;;;;;;5030932;28;20030;-70
2022/03/26 05:13:45;;;;;;;10.73;6.30;;;;;;;;;;5030812;28;20067;-71
2022/03/26 05:16:11;;;;;;;11.23;6.80;;;;;;;;;;5031604;28;20029;-71
2022/03/26 05:18:38;;;;;;;10.50;6.85;;;;;;;;;;5030792;28;20063;-71
2022/03/26 05:21:07;;;;;;;15.00;8.35;;;;;;;;;;5030683;28;20047;-71
2022/03/26 05:23:34;;;;;;;11.57;6.40;;;;;;;;;;5030915;28;20029;-71
2022/03/26 05:26:00;;;;;;;10.30;5.60;;;;;;;;;;5030843;28;20017;-71
2022/03/26 05:28:26;;;;;;;8.60;5.18;;;;;;;;;;5030440;28;20059;-71
2022/03/26 05:30:54;;;;;;;10.77;5.70;;;;;;;;;;5031269;28;20029;-71
2022/03/26 05:33:20;;;;;;;8.77;5.43;;;;;;;;;;5030944;28;20014;-71
2022/03/26 05:35:47;;;;;;;11.32;7.38;;;;;;;;;;5030552;28;20021;-71
2022/03/26 05:38:13;;;;;;;13.30;7.32;;;;;;;;;;5033477;28;20026;-70
2022/03/26 05:40:39;;;;;;;11.45;6.93;;;;;;;;;;5034306;28;20017;-71
2022/03/26 05:43:06;;;;;;;11.63;6.53;;;;;;;;;;5016858;28;20013;-71
2022/03/26 05:45:33;;;;;;;9.75;6.50;;;;;;;;;;5034208;28;20026;-71
2022/03/26 05:48:02;;;;;;;11.73;6.95;;;;;;;;;;5012396;28;20042;-71
2022/03/26 05:50:29;;;;;;;11.18;6.38;;;;;;;;;;5034031;28;20029;-71
2022/03/26 05:52:56;;;;;;;11.18;6.25;;;;;;;;;;5034237;28;20021;-71
2022/03/26 05:55:23;;;;;;;10.98;5.70;;;;;;;;;;5034188;28;20021;-71
2022/03/26 05:57:49;;;;;;;12.23;6.78;;;;;;;;;;5033982;28;20474;-71
2022/03/26 06:00:16;;;;;;;10.93;6.45;;;;;;;;;;5034002;28;20500;-71
2022/03/26 06:02:42;;;;;;;8.40;5.72;;;;;;;;;;5033954;28;20493;-71
2022/03/26 06:05:09;;;;;;;9.82;6.45;;;;;;;;;;5033920;28;20088;-71
2022/03/26 06:07:36;;;;;;;11.45;6.47;;;;;;;;;;5033745;28;20049;-71
2022/03/26 06:10:03;;;;;;;11.23;5.55;;;;;;;;;;5034334;28;20037;-71
2022/03/26 06:12:29;;;;;;;13.70;6.05;;;;;;;;;;5033341;28;20022;-71
2022/03/26 06:14:56;;;;;;;12.13;6.13;;;;;;;;;;5033687;28;20021;-70
2022/03/26 06:17:22;;;;;;;12.73;5.97;;;;;;;;;;5033592;28;20506;-70
2022/03/26 06:19:48;;;;;;;14.30;6.32;;;;;;;;;;5033594;28;20040;-71
2022/03/26 06:22:15;;;;;;;11.57;6.53;;;;;;;;;;5034022;28;20385;-71
2022/03/26 06:24:41;;;;;;;10.15;5.95;;;;;;;;;;5033381;28;20040;-71
2022/03/26 06:27:07;;;;;;;9.27;6.43;;;;;;;;;;5033334;28;20043;-71
2022/03/26 06:29:36;;;;;;;12.05;6.53;;;;;;;;;;5033394;28;20030;-71
2022/03/26 06:32:02;;;;;;;11.38;5.65;;;;;;;;;;5033648;28;20088;-71
2022/03/26 06:34:29;;;;;;;14.68;6.93;;;;;;;;;;5033181;28;20021;-71
2022/03/26 06:36:55;;;;;;;11.07;5.82;;;;;;;;;;5033958;28;20026;-71
2022/03/26 06:39:21;;;;;;;12.55;6.32;;;;;;;;;;5032922;28;20493;-71
2022/03/26 06:41:48;;;;;;;11.77;6.03;;;;;;;;;;5033394;28;20025;-71
2022/03/26 06:44:14;;;;;;;10.82;6.60;;;;;;;;;;5033216;28;20022;-71
2022/03/26 06:46:41;;;;;;;10.93;6.57;;;;;;;;;;5033167;28;20364;-71
2022/03/26 06:49:08;;;;;;;10.50;6.63;;;;;;;;;;5032515;28;20041;-71
2022/03/26 06:51:35;;;;;;;10.00;5.95;;;;;;;;;;5033288;28;20024;-71
2022/03/26 06:54:02;;;;;;;10.90;6.13;;;;;;;;;;5032810;28;20033;-71
2022/03/26 06:56:28;;;;;;;11.77;5.82;;;;;;;;;;5032842;28;20032;-71
2022/03/26 06:58:55;;;;;;;13.85;6.82;;;;;;;;;;5033033;28;20017;-71
2022/03/26 07:01:21;;;;;;;7.93;5.63;;;;;;;;;;5015202;28;20509;-71
2022/03/26 07:03:48;;;;;;;11.80;6.38;;;;;;;;;;5033143;28;20374;-71
2022/03/26 07:06:16;;;;;;;9.50;6.30;;;;;;;;;;5014874;28;20383;-71
2022/03/26 07:08:42;;;;;;;13.63;6.13;;;;;;;;;;5032108;28;20046;-71
2022/03/26 07:11:09;;;;;;;11.07;5.65;;;;;;;;;;5032652;28;20489;-71
2022/03/26 07:13:35;;;;;;;10.00;5.88;;;;;;;;;;5032648;28;20013;-71
2022/03/26 07:16:02;;;;;;;7.85;5.53;;;;;;;;;;5033109;28;20045;-71
2022/03/26 07:18:28;;;;;;;9.48;5.25;;;;;;;;;;5032194;28;20021;-71
2022/03/26 07:20:59;;;;;;;8.75;6.32;;;;;;;;;;5032521;28;20456;-71
2022/03/26 07:23:25;;;;;;;9.33;5.83;;;;;;;;;;5032046;28;20025;-71
2022/03/26 07:25:51;;;;;;;11.45;5.82;;;;;;;;;;5032395;28;20520;-72
2022/03/26 07:28:18;;;;;;;8.65;5.65;;;;;;;;;;5032601;28;20040;-71
2022/03/26 07:30:44;;;;;;;11.50;5.78;;;;;;;;;;5032527;28;20110;-71
2022/03/26 07:33:11;;;;;;;8.70;5.43;;;;;;;;;;5032202;28;20047;-71
2022/03/26 07:35:37;;;;;;;9.63;6.22;;;;;;;;;;5032342;28;20029;-71
2022/03/26 07:38:03;;;;;;;10.93;6.18;;;;;;;;;;5031801;28;20494;-71
2022/03/26 07:40:29;;;;;;;8.63;5.45;;;;;;;;;;5032046;28;20028;-71
2022/03/26 07:42:56;;;;;;;9.00;5.95;;;;;;;;;;5032719;28;20035;-71
2022/03/26 07:45:22;;;;;;;10.32;6.07;;;;;;;;;;5032136;28;20025;-71
2022/03/26 07:47:49;;;;;;;10.63;5.93;;;;;;;;;;5031984;28;20059;-71
2022/03/26 07:50:15;;;;;;;10.18;5.57;;;;;;;;;;5031962;28;20036;-71
2022/03/26 07:52:42;;;;;;;6.88;5.35;;;;;;;;;;5016173;28;20030;-71
2022/03/26 07:55:10;;;;;;;11.10;5.40;;;;;;;;;;5032178;28;20032;-71
2022/03/26 07:57:36;;;;;;;12.18;5.57;;;;;;;;;;5031967;28;20028;-72
2022/03/26 08:00:03;;;;;;;9.90;5.78;;;;;;;;;;5031979;28;20029;-71
2022/03/26 08:02:30;;;;;;;6.07;5.47;;;;;;;;;;5031956;28;20025;-71
2022/03/26 08:04:56;;;;;;;7.85;5.00;;;;;;;;;;5031828;28;20039;-72
2022/03/26 08:07:22;;;;;;;7.57;5.35;;;;;;;;;;5031684;28;20047;-72
2022/03/26 08:09:49;;;;;;;12.25;5.53;;;;;;;;;;5032147;28;20039;-72
2022/03/26 08:12:15;;;;;;;7.95;5.13;;;;;;;;;;5013901;28;20508;-69
2022/03/26 08:14:42;;;;;;;7.82;5.07;;;;;;;;;;5031460;28;20029;-69
2022/03/26 08:17:09;;;;;;;8.00;5.03;;;;;;;;;;5031423;28;20535;-69
2022/03/26 08:19:36;;;;;;;5.63;4.70;;;;;;;;;;5013829;28;20490;-69
2022/03/26 08:22:05;;;;;;;8.55;5.63;;;;;;;;;;5031690;28;20025;-69
2022/03/26 08:24:32;;;;;;;6.72;5.10;;;;;;;;;;5031604;28;20040;-69
2022/03/26 08:26:58;;;;;;;11.15;5.22;;;;;;;;;;5031247;28;20048;-69
2022/03/26 08:29:24;;;;;;;10.13;5.40;;;;;;;;;;5031235;28;20052;-70
2022/03/26 08:31:51;;;;;;;8.02;5.30;;;;;;;;;;5031613;28;20025;-69
2022/03/26 08:34:18;;;;;;;13.35;5.43;;;;;;;;;;5031591;28;20450;-70
2022/03/26 08:36:45;;;;;;;8.10;5.10;;;;;;;;;;5031242;28;20033;-70
2022/03/26 08:39:11;;;;;;;8.23;5.20;;;;;;;;;;5031365;28;20024;-69
2022/03/26 08:41:37;;;;;;;5.95;4.70;;;;;;;;;;5031261;28;20025;-69
2022/03/26 08:44:04;;;;;;;5.82;5.05;;;;;;;;;;5031138;28;20040;-70
2022/03/26 08:46:30;;;;;;;9.32;5.97;;;;;;;;;;5031490;28;20036;-70
2022/03/26 08:48:58;;;;;;;6.93;5.40;;;;;;;;;;5031695;28;20494;-70
2022/03/26 08:51:24;;;;;;;9.32;5.03;;;;;;;;;;5030714;28;20040;-70
2022/03/26 08:53:51;;;;;;;6.22;5.30;;;;;;;;;;5031042;28;20497;-69
2022/03/26 08:56:17;;;;;;;8.55;5.22;;;;;;;;;;5030966;28;20031;-70
2022/03/26 08:58:44;;;;;;;6.50;5.38;;;;;;;;;;5031448;28;20025;-70
2022/03/26 09:01:11;;;;;;;11.82;5.40;;;;;;;;;;5027256;28;20025;-70
2022/03/26 09:03:37;;;;;;;12.23;5.50;;;;;;;;;;5030981;28;20527;-69
2022/03/26 09:06:04;;;;;;;6.95;5.32;;;;;;;;;;5030881;28;20128;-70
2022/03/26 09:08:31;;;;;;;10.93;5.40;;;;;;;;;;5030744;28;20046;-70
2022/03/26 09:10:57;;;;;;;10.85;5.80;;;;;;;;;;5030882;28;20044;-70
2022/03/26 09:13:24;;;;;;;8.35;5.35;;;;;;;;;;5034199;28;20026;-69
2022/03/26 09:15:50;;;;;;;10.38;5.40;;;;;;;;;;5034974;28;20044;-70
2022/03/26 09:18:17;;;;;;;8.00;5.35;;;;;;;;;;5034863;28;20025;-70
2022/03/26 09:20:43;;;;;;;8.77;5.68;;;;;;;;;;5034615;28;20021;-70
2022/03/26 09:23:09;;;;;;;12.30;5.55;;;;;;;;;;5034700;28;20385;-70
2022/03/26 09:25:36;;;;;;;8.38;5.07;;;;;;;;;;5034639;28;20033;-70
2022/03/26 09:28:04;;;;;;;11.82;5.60;;;;;;;;;;5035160;28;20032;-70
2022/03/26 09:30:31;;;;;;;8.40;4.95;;;;;;;;;;5034422;28;20060;-70
2022/03/26 09:32:58;;;;;;;6.63;5.00;;;;;;;;;;5034554;28;20516;-70
2022/03/26 09:35:25;;;;;;;8.95;4.65;;;;;;;;;;5034050;28;20466;-69
2022/03/26 09:37:51;;;;;;;6.55;4.20;;;;;;;;;;5016612;28;20026;-70
2022/03/26 09:40:20;;;;;;;6.18;4.00;;;;;;;;;;5034624;28;20393;-70
2022/03/26 09:42:46;;;;;;;6.60;4.13;;;;;;;;;;5033802;28;20036;-70
2022/03/26 09:45:13;;;;;;;5.32;4.32;;;;;;;;;;5034185;28;20039;-70
2022/03/26 09:47:39;;;;;;;5.47;4.28;;;;;;;;;;5034202;28;20072;-70
2022/03/26 09:50:08;;;;;;;4.55;4.00;;;;;;;;;;5034004;28;20574;-70
2022/03/26 09:52:35;;;;;;;7.30;4.28;;;;;;;;;;5034512;28;20036;-70
2022/03/26 09:55:01;;;;;;;9.00;4.72;;;;;;;;;;5034679;28;20017;-70
2022/03/26 09:57:28;;;;;;;4.82;3.95;;;;;;;;;;5033959;28;20025;-70
2022/03/26 09:59:54;;;;;;;5.65;4.05;;;;;;;;;;5033881;28;20393;-70
2022/03/26 10:02:20;;;;;;;12.23;4.45;;;;;;;;;;5033604;28;20043;-69
2022/03/26 10:04:47;;;;;;;5.88;4.22;;;;;;;;;;5033945;28;20493;-70
2022/03/26 10:07:13;;;;;;;5.40;4.07;;;;;;;;;;5017094;28;20045;-70
2022/03/26 10:09:44;;;;;;;6.63;4.28;;;;;;;;;;5033916;28;20059;-70
2022/03/26 10:12:11;;;;;;;6.68;4.00;;;;;;;;;;5033889;28;20510;-69
2022/03/26 10:14:37;;;;;;;9.05;3.97;;;;;;;;;;5033757;28;20039;-70
2022/03/26 10:17:13;;;;;;;6.68;4.05;;;;;;;;;;5033368;28;20398;-70
2022/03/26 10:19:43;;;;;;;5.82;4.07;;;;;;;;;;5033714;28;20493;-70
2022/03/26 10:22:22;;;;;;;5.57;4.20;;;;;;;;;;5034247;28;20509;-70
2022/03/26 10:24:48;;;;;;;5.25;4.05;;;;;;;;;;5034077;28;20017;-70
2022/03/26 10:27:15;;;;;;;6.05;4.22;;;;;;;;;;5033571;28;20030;-69
2022/03/26 10:29:52;;;;;;;8.52;4.40;;;;;;;;;;5015869;28;20024;-70
2022/03/26 10:32:39;;;;;;;6.88;4.55;;;;;;;;;;5033158;28;20021;-69
2022/03/26 10:35:13;;;;;;;8.05;4.35;;;;;;;;;;5033755;28;20029;-70
2022/03/26 10:37:47;;;;;;;7.32;4.80;;;;;;;;;;5033508;28;20032;-70
2022/03/26 10:40:20;;;;;;;10.52;4.68;;;;;;;;;;5029941;28;20041;-70
2022/03/26 10:42:55;;;;;;;5.80;4.22;;;;;;;;;;5032763;28;20029;-70
2022/03/26 10:45:22;;;;;;;6.65;4.90;;;;;;;;;;5033233;28;20021;-69
2022/03/26 10:47:52;;;;;;;7.35;4.57;;;;;;;;;;5015304;28;20044;-70
2022/03/26 10:50:18;;;;;;;7.35;4.80;;;;;;;;;;5033490;28;20019;-69
2022/03/26 10:52:45;;;;;;;7.47;4.72;;;;;;;;;;5033396;28;20026;-70
2022/03/26 10:55:15;;;;;;;6.32;4.97;;;;;;;;;;5033607;28;20025;-69
2022/03/26 10:57:44;;;;;;;6.75;4.93;;;;;;;;;;5031991;28;20034;-69
2022/03/26 11:00:11;;;;;;;6.70;4.68;;;;;;;;;;5032959;28;20033;-69
2022/03/26 11:02:38;;;;;;;6.47;5.05;;;;;;;;;;5032773;28;20014;-69
2022/03/26 11:05:04;;;;;;;8.32;5.13;;;;;;;;;;5032888;28;20412;-70
2022/03/26 11:07:31;;;;;;;7.50;5.38;;;;;;;;;;5033020;28;20038;-70
2022/03/26 11:09:58;;;;;;;10.43;5.65;;;;;;;;;;5033389;28;20029;-69
2022/03/26 11:12:24;;;;;;;7.53;5.28;;;;;;;;;;5032702;28;20032;-70
2022/03/26 11:14:52;;;;;;;6.72;5.20;;;;;;;;;;5032523;28;20025;-70
2022/03/26 11:17:31;;;;;;;12.00;5.50;;;;;;;;;;5032651;28;20021;-70
2022/03/26 11:20:06;;;;;;;9.40;5.35;;;;;;;;;;5032508;28;20510;-70
2022/03/26 11:22:51;;;;;;;7.85;5.68;;;;;;;;;;5032510;28;20021;-70
2022/03/26 11:25:27;;;;;;;9.50;5.85;;;;;;;;;;5029391;28;20483;-69
2022/03/26 11:28:29;;;;;;;7.93;5.78;;;;;;;;;;5032869;28;20390;-70
2022/03/26 11:31:00;;;;;;;12.45;5.90;;;;;;;;;;4950373;28;20116;-69
2022/03/26 11:33:33;;;;;;;8.43;5.35;;;;;;;;;;4947790;29;20050;-70
2022/03/26 11:36:00;;;;;;;11.18;5.93;;;;;;;;;;4947372;28;20031;-70
2022/03/26 11:38:28;;;;;;;9.80;5.80;;;;;;;;;;4948000;29;20031;-70
2022/03/26 11:41:05;;;;;;;8.50;5.28;;;;;;;;;;4950987;29;20035;-70
2022/03/26 11:43:43;;;;;;;6.70;5.10;;;;;;;;;;4950598;29;20535;-70
2022/03/26 11:51:56;;;;;;;9.70;5.53;;;;;;;;;;4939262;29;20046;-70
2022/03/26 11:54:23;;;;;;;9.45;5.20;;;;;;;;;;4947380;29;20035;-70
2022/03/26 11:57:08;;;;;;;8.98;5.65;;;;;;;;;;4947802;29;20035;-69
2022/03/26 11:59:38;;;;;;;7.68;5.85;;;;;;;;;;4947050;29;20087;-70
2022/03/26 12:02:23;;;;;;;8.38;5.45;;;;;;;;;;4949302;29;20125;-70
2022/03/26 12:06:35;;;;;;;9.88;5.70;;;;;;;;;;4978526;28;20730;-70
2022/03/26 12:07:46;;;;;;;9.52;4.97;;;;;;;;;;5016480;28;20087;-70
2022/03/26 12:10:13;;;;;;;7.43;5.18;;;;;;;;;;5032674;28;20022;-70
2022/03/26 12:12:59;;;;;;;11.18;5.90;;;;;;;;;;5031849;28;20029;-69
2022/03/26 12:15:27;;;;;;;9.43;5.55;;;;;;;;;;5031639;28;20024;-69
2022/03/26 12:17:54;;;;;;;6.07;5.28;;;;;;;;;;5031632;28;20065;-70
2022/03/26 12:20:21;;;;;;;9.32;5.25;;;;;;;;;;5031450;28;20034;-69
2022/03/26 12:23:10;;;;;;;9.18;5.50;;;;;;;;;;5031543;28;20033;-70
2022/03/26 12:25:46;;;;;;;6.10;4.93;;;;;;;;;;5031853;28;20029;-69
2022/03/26 12:28:14;;;;;;;13.07;5.75;;;;;;;;;;5027767;28;20014;-69
2022/03/26 12:31:06;;;;;;;10.68;5.60;;;;;;;;;;5013874;28;20520;-69
2022/03/26 12:33:40;;;;;;;9.13;5.82;;;;;;;;;;5028004;28;20030;-69
2022/03/26 12:36:07;;;;;;;8.70;5.35;;;;;;;;;;5031391;28;20032;-69
2022/03/26 12:38:33;;;;;;;7.15;5.10;;;;;;;;;;5031426;28;20389;-69
2022/03/26 12:41:04;;;;;;;5.85;5.15;;;;;;;;;;5031352;28;20464;-69
2022/03/26 12:43:30;;;;;;;;;;;;;;;;;;5031866;28;20025;-69
2022/03/26 12:45:58;;;;;;;8.07;5.20;;;;;;;;;;5031606;28;20308;-69
2022/03/26 12:48:28;;;;;;;8.13;5.20;;;;;;;;;;5034526;28;20067;-72
2022/03/26 12:50:55;;;;;;;7.57;4.47;;;;;;;;;;5035516;28;20025;-70
2022/03/26 12:53:21;;;;;;;9.05;5.28;;;;;;;;;;5035317;28;20037;-72
2022/03/26 12:55:54;;;;;;;8.25;5.15;;;;;;;;;;5035290;28;20383;-69
2022/03/26 13:01:08;;;;;;;5.82;4.50;;;;;;;;;;5035177;28;20051;-71
2022/03/26 13:03:35;;;;;;;7.55;5.03;;;;;;;;;;5035133;28;20441;-72
2022/03/26 13:06:05;;;;;;;5.85;4.18;;;;;;;;;;5035031;28;20033;-71
2022/03/26 13:08:32;;;;;;;7.25;4.78;;;;;;;;;;5034901;28;20045;-70
2022/03/26 13:11:03;;;;;;;9.07;5.43;;;;;;;;;;5034970;28;20025;-71
2022/03/26 13:13:31;;;;;;;7.00;5.25;;;;;;;;;;5035521;28;20033;-71
2022/03/26 13:16:07;;;;;;;6.97;5.32;;;;;;;;;;5033999;28;20034;-71
2022/03/26 13:18:40;;;;;;;8.20;4.88;;;;;;;;;;5035139;28;20052;-71
2022/03/26 13:21:07;;;;;;;9.25;5.25;;;;;;;;;;5034667;28;20033;-71
2022/03/26 13:23:33;;;;;;;8.65;5.10;;;;;;;;;;5035029;28;20022;-71
2022/03/26 13:26:02;;;;;;;7.10;4.90;;;;;;;;;;5034486;28;20355;-71
2022/03/26 13:28:33;;;;;;;11.73;5.32;;;;;;;;;;5035130;28;20033;-71
2022/03/26 13:30:59;;;;;;;8.35;5.32;;;;;;;;;;5017819;28;20022;-71
2022/03/26 13:33:28;;;;;;;6.35;4.82;;;;;;;;;;5034692;28;20026;-71
2022/03/26 13:35:56;;;;;;;7.70;5.15;;;;;;;;;;5034825;28;20075;-71
2022/03/26 13:38:28;;;;;;;6.65;4.75;;;;;;;;;;5034433;28;20056;-71
2022/03/26 13:40:55;;;;;;;8.45;5.38;;;;;;;;;;5016627;28;20445;-71
2022/03/26 13:43:21;;;;;;;8.55;5.35;;;;;;;;;;5034609;28;20458;-71
2022/03/26 13:45:47;;;;;;;10.80;5.22;;;;;;;;;;5033651;28;20044;-71
2022/03/26 13:48:14;;;;;;;6.40;5.03;;;;;;;;;;5016769;28;20017;-71
2022/03/26 13:50:40;;;;;;;7.50;5.25;;;;;;;;;;5034664;28;20030;-71
2022/03/26 13:53:16;;;;;;;7.57;4.80;;;;;;;;;;5034305;28;20424;-71
2022/03/26 13:55:46;;;;;;;6.50;5.18;;;;;;;;;;5033891;28;20448;-71
2022/03/26 13:58:18;;;;;;;7.10;4.93;;;;;;;;;;5030463;28;20032;-71
2022/03/26 14:00:44;;;;;;;6.03;5.00;;;;;;;;;;5034030;28;20041;-71
2022/03/26 14:03:11;;;;;;;9.20;5.32;;;;;;;;;;5034260;28;20022;-72
2022/03/26 14:05:40;;;;;;;7.40;4.93;;;;;;;;;;5033980;28;20021;-71
2022/03/26 14:08:08;;;;;;;8.25;5.20;;;;;;;;;;5033945;28;20046;-72
2022/03/26 14:10:34;;;;;;;9.48;5.15;;;;;;;;;;5033667;28;20053;-72
2022/03/26 14:13:01;;;;;;;7.82;5.03;;;;;;;;;;5034521;28;20017;-71
2022/03/26 14:15:28;;;;;;;6.97;4.65;;;;;;;;;;5033776;28;20478;-71
2022/03/26 14:17:55;;;;;;;6.78;5.28;;;;;;;;;;5033965;28;20029;-71
2022/03/26 14:20:21;;;;;;;6.55;4.90;;;;;;;;;;5033626;28;20041;-71
2022/03/26 14:22:48;;;;;;;8.68;5.43;;;;;;;;;;5033885;28;20029;-71
2022/03/26 14:25:15;;;;;;;6.15;4.65;;;;;;;;;;5033865;28;20036;-71
2022/03/26 14:27:42;;;;;;;8.00;5.10;;;;;;;;;;5033825;28;20025;-71
2022/03/26 14:30:08;;;;;;;8.45;4.85;;;;;;;;;;5033949;28;20028;-71
2022/03/26 14:32:35;;;;;;;5.72;4.68;;;;;;;;;;5033502;28;20018;-71
2022/03/26 14:35:01;;;;;;;14.32;5.35;;;;;;;;;;5033501;28;20474;-72
2022/03/26 14:37:28;;;;;;;6.93;5.13;;;;;;;;;;5033962;28;20017;-71
2022/03/26 14:39:54;;;;;;;7.82;5.03;;;;;;;;;;5033315;28;20064;-72
2022/03/26 14:42:21;;;;;;;9.35;5.13;;;;;;;;;;5033625;28;20022;-72
2022/03/26 14:44:48;;;;;;;7.90;5.05;;;;;;;;;;5033258;28;20030;-71
2022/03/26 14:47:14;;;;;;;5.90;4.53;;;;;;;;;;5015684;28;20028;-71
2022/03/26 14:49:40;;;;;;;9.93;5.20;;;;;;;;;;5033259;28;20424;-72